Tiempo atmosférico en la estación meteorológica de Alcoy/Alcoi, Alacant/Alicante (600 m.)



Fecha
DESCASC
Temp. máxima en grados centígrados (hora)
DESCASC
Temp. mínima en grados centígrados (hora)
DESCASC
Temp. media en grados centígrados
DESCASC
Racha de viento máxima en m/sg (hora)
DESCASC
Velocidad máxima media en intervalos de 10 minutos(hora)
DESCASC
Precipitaciones diarias en mm
DESCASC
Precipitaciones de 00:00 a 06:00 en mm
DESCASC
Precipitaciones de 06:00 a 12:00 en mm
DESCASC
Precipitaciones de 12:00 a 18:00 en mm
DESCASC
Precipitaciones de 18:00 a 24:00 en mm
DESCASC
22-04-2019 13.4 (17:20) 8.9 (02:30) 11.1 9.72 (08:40) 5 (00:30) 16.6 14 0.4 2.2 0
21-04-2019 10.7 (13:00) 9 (07:30) 9.8 11.11 (00:10) 5.83 (00:10) 64.4 1.4 7.2 9.6 46.2
20-04-2019 11.9 (00:00) 10.1 (23:20) 11 13.33 (06:00) 7.78 (01:40) 51.4 19.2 12.2 13.6 6.4
19-04-2019 12.3 (17:20) 9.5 (05:50) 10.9 11.39 (22:00) 5.56 (21:10) 20 2.4 0.2 8 9.4
18-04-2019 12.9 (15:20) 10.6 (00:00) 11.8 8.33 (08:40) 4.72 (08:40) 4.4 0 0 0.6 3.8
17-04-2019 18.9 (14:10) 10.3 (00:00) 14.6 8.61 (15:40) 4.72 (15:50) 0 0 0 0 0
16-04-2019 19.5 (14:10) 10.3 (00:00) 14.9 8.89 (13:40) 3.89 (12:00) 0 0 0 0 0
15-04-2019 18.9 (16:10) 11.8 (00:00) 15.3 7.22 (14:00) 4.44 (03:00) 0 0 0 0 0
14-04-2019 26.6 (16:00) 11.2 (00:00) 18.9 8.89 (11:40) 3.89 (01:20) 0 0 0 0 0
13-04-2019 22.2 (15:20) 7.2 (00:00) 14.7 9.72 (14:20) 4.17 (16:30) 0 0 0 0 0
12-04-2019 18.7 (18:30) 6.3 (00:00) 12.5 6.67 (15:20) 3.89 (14:10) 0 0 0 0 0
11-04-2019 18.2 (17:50) 5.4 (00:00) 11.8 7.22 (19:10) 3.33 (20:30) 0 0 0 0 0
10-04-2019 16.6 (15:10) 9.3 (00:00) 13 15.28 (06:40) 8.33 (06:00) 0.2 0 0 0.2 0
09-04-2019 17 (15:30) 9.7 (00:00) 13.3 13.89 (12:40) 6.94 (13:20) 0.8 0 0 0 0.8
08-04-2019 18.7 (16:30) 11.3 (00:00) 15 9.72 (06:30) 5.28 (17:50) 0 0 0 0 0
07-04-2019 16.5 (17:30) 7 (00:00) 11.8 14.44 (03:40) 7.22 (14:40) 0 0 0 0 0
06-04-2019 13.6 (16:20) 6.2 (00:00) 9.9 14.17 (17:30) 6.67 (17:40) 0.4 0 0 0.4 0
05-04-2019 16.7 (14:40) 5.8 (00:00) 11.3 12.22 (17:00) 5.56 (22:00) 10.4 0 0 9 1.4
04-04-2019 17.2 (15:50) 6.7 (00:00) 12 10.28 (18:50) 5 (17:10) 0 0 0 0 0
03-04-2019 20.3 (16:10) 10.2 (00:00) 15.2 11.39 (18:00) 5.28 (15:50) 0 0 0 0 0
02-04-2019 19.6 (13:40) 9.8 (00:00) 14.7 10 (17:50) 3.89 (18:00) 1.2 0 0 0.8 0.4
01-04-2019 11.1 (15:40) 9 (00:00) 10.1 5 (00:20) 2.78 (16:50) 3.6 2 0.2 0.2 1.2
31-03-2019 10.3 (15:00) 6.1 (00:00) 8.2 7.5 (18:20) 3.61 (18:40) 39.6 1 16.4 11.8 10.4
30-03-2019 15 (13:40) 4.9 (00:00) 10 7.78 (16:00) 4.72 (16:50) 0 0 0 0 0
29-03-2019 15.7 (13:10) 2.4 (00:00) 9 8.33 (14:50) 4.17 (14:50) 0 0 0 0 0
28-03-2019 16.7 (13:30) 2.4 (00:00) 9.6 6.94 (13:20) 3.89 (15:00) 0 0 0 0 0
27-03-2019 15.1 (15:30) 2.5 (00:00) 8.8 10 (14:20) 4.17 (13:20) 0 0 0 0 0
26-03-2019 15.6 (15:40) 5.2 (00:00) 10.4 8.89 (15:30) 4.44 (15:30) 0 0 0 0 0
25-03-2019 20.8 (14:40) 5.8 (00:00) 13.3 6.67 (12:00) 3.89 (12:00) 0 0 0 0 0

Gráficas

Temp. máximas Temp. mínimas Temp. medias Precipitaciones Rachas de viento máximas Velocidades máximas media en intervalos de 10 minutos

Datos horarios

Fecha y hora oficial Temperatura (ºC) Velocidad del viento (km/h) Dirección del viento Racha (km/h) Dirección de racha Precipitación (mm) Presión (hPa) Tendencia (hPa) Humedad (%)
2019-04-23 23:00:00 11.4 18 Oeste 31 Oeste 0 -- -- 52
2019-04-23 22:00:00 13.2 9 Oeste 22 Noroeste 0 -- -- 62
2019-04-23 21:00:00 13.3 5 Sudoeste 23 Sudoeste 0 -- -- 69
2019-04-23 20:00:00 14.6 9 Sudoeste 31 Sudoeste 0 -- -- 63
2019-04-23 19:00:00 15.4 12 Sudoeste 32 Sudoeste 0 -- -- 56
2019-04-23 18:00:00 15 10 Oeste 23 Oeste 0 -- -- 56
2019-04-23 17:00:00 13.1 14 Sudoeste 36 Sudoeste 0.2 -- -- 71
2019-04-23 16:00:00 14.8 15 Oeste 35 Oeste 0 -- -- 61
2019-04-23 15:00:00 17.9 14 Oeste 28 Oeste 0 -- -- 41
2019-04-23 14:00:00 17.8 14 Oeste 31 Sudoeste 0 -- -- 42
2019-04-23 13:00:00 19 3 Oeste 15 Oeste 0 -- -- 41
2019-04-23 12:00:00 17.3 10 Oeste 25 Oeste 0 -- -- 43
2019-04-23 11:00:00 17.4 5 Sudeste 13 Sudoeste 0 -- -- 48
2019-04-23 10:00:00 14.3 5 Sudoeste 23 Sudoeste 0 -- -- 57
2019-04-23 09:00:00 13.1 8 Sudoeste 28 Oeste 0 -- -- 59
2019-04-23 08:00:00 13.2 13 Sudoeste 33 Sudoeste 0 -- -- 57
2019-04-23 07:00:00 13.1 8 Sudoeste 31 Oeste 0 -- -- 61
2019-04-23 06:00:00 13.4 10 Oeste 30 Oeste 0 -- -- 63
2019-04-23 05:00:00 13.9 14 Oeste 27 Oeste 0 -- -- 61
2019-04-23 04:00:00 13.9 14 Oeste 31 Sudoeste 0 -- -- 63
2019-04-23 03:00:00 11.2 9 Sudoeste 25 Sudoeste 0 -- -- 77
2019-04-23 02:00:00 12.4 6 Sudoeste 20 Sudoeste 0 -- -- 72
2019-04-23 01:00:00 11.6 6 Sur 14 Sudoeste 0 -- -- 80
2019-04-23 00:00:00 13.3 9 Sudoeste 18 Oeste 0 -- -- 72
2019-04-22 23:00:00 12.1 9 Sudoeste 12 Sudoeste 0 -- -- 82
2019-04-22 22:00:00 11.7 5 Sudoeste 13 Sudoeste 0 -- -- 82
2019-04-22 21:00:00 11.6 5 Sur 10 Sur 0 -- -- 83
2019-04-22 20:00:00 11.9 3 Sudoeste 8 Sudoeste 0 -- -- 81
2019-04-22 19:00:00 12.4 4 Este 14 Nordeste 0 -- -- 76
2019-04-22 18:00:00 13.3 8 Nordeste 19 Nordeste 0 -- -- 71
2019-04-22 17:00:00 13.1 4 Nordeste 19 Noroeste 0 -- -- 70
2019-04-22 16:00:00 11.5 3 Sur 10 Oeste 0.2 -- -- 82
2019-04-22 15:00:00 11.6 5 Norte 16 Nordeste 0.6 -- -- 80
2019-04-22 14:00:00 10.8 6 Este 12 Sudeste 0.6 -- -- 87
2019-04-22 13:00:00 10.5 5 Sudeste 23 Nordeste 0.8 -- -- 89
2019-04-22 12:00:00 12 9 Nordeste 27 Este 0 -- -- 71
2019-04-22 11:00:00 11.6 8 Norte 24 Norte 0 -- -- 75
2019-04-22 10:00:00 9.9 12 Norte 35 Norte 0.2 -- -- 85
2019-04-22 09:00:00 9.8 16 Norte 35 Norte 0.2 -- -- 87
2019-04-22 08:00:00 10.3 9 Norte 32 Nordeste 0 -- -- 87
2019-04-22 07:00:00 10.2 13 Norte 30 Nordeste 0 -- -- 85
2019-04-22 06:00:00 9.9 10 Nordeste 25 Norte 0.4 -- -- 90
2019-04-22 05:00:00 9.5 11 Nordeste 21 Nordeste 0.6 -- -- 96
2019-04-22 04:00:00 9.4 7 Nordeste 22 Nordeste 1.2 -- -- 95
2019-04-22 03:00:00 8.9 3 Sur 12 Este 1.2 -- -- 96
2019-04-22 02:00:00 9.2 10 Nordeste 28 Nordeste 3.8 -- -- 94
2019-04-22 01:00:00 9.4 16 Nordeste 35 Nordeste 6.8 -- -- 94
2019-04-22 00:00:00 9.6 8 Nordeste 27 Nordeste 8.4 -- -- 94
2019-04-21 23:00:00 10.4 7 Norte 33 Noroeste 7 -- -- 89
2019-04-21 22:00:00 9.8 8 Noroeste 25 Norte 8.4 -- -- 94
2019-04-21 21:00:00 10.2 7 Norte 33 Nordeste 7.8 -- -- 90
2019-04-21 20:00:00 10.1 12 Nordeste 28 Nordeste 7.6 -- -- 90
2019-04-21 19:00:00 9.9 13 Norte 32 Norte 7 -- -- 91
2019-04-21 18:00:00 10.2 11 Norte 32 Norte 3.8 -- -- 91
2019-04-21 17:00:00 9.9 9 Nordeste 35 Nordeste 2 -- -- 95
2019-04-21 16:00:00 10.3 14 Nordeste 32 Nordeste 0.6 -- -- 93
2019-04-21 15:00:00 9.9 12 Nordeste 32 Nordeste 1 -- -- 97
2019-04-21 14:00:00 10.4 18 Nordeste 38 Nordeste 1.4 -- -- 96
2019-04-21 13:00:00 10.7 9 Nordeste 22 Este 0.8 -- -- 95
2019-04-21 12:00:00 10.1 11 Nordeste 23 Nordeste 2 -- -- 94
2019-04-21 11:00:00 9.7 7 Nordeste 30 Nordeste 0.8 -- -- 97
2019-04-21 10:00:00 9.4 11 Nordeste 28 Norte 1 -- -- 98
2019-04-21 09:00:00 9.1 8 Nordeste 21 Nordeste 1 -- -- 99
2019-04-21 08:00:00 9 11 Nordeste 23 Norte 1.4 -- -- 98
2019-04-21 07:00:00 9.2 12 Nordeste 26 Nordeste 1 -- -- 97
2019-04-21 06:00:00 9.2 12 Nordeste 32 Nordeste 0.2 -- -- 95
2019-04-21 05:00:00 9.5 12 Nordeste 34 Nordeste 0 -- -- 91
2019-04-21 04:00:00 9.3 13 Nordeste 32 Norte 0.2 -- -- 93
2019-04-21 03:00:00 9.1 10 Nordeste 31 Nordeste 0 -- -- 97
2019-04-21 02:00:00 9.3 17 Nordeste 35 Nordeste 0.4 -- -- 97
2019-04-21 01:00:00 9.6 14 Nordeste 40 Nordeste 0.6 -- -- 97
2019-04-21 00:00:00 10.2 19 Nordeste 33 Nordeste 2 -- -- 98
2019-04-20 23:00:00 10.2 15 Nordeste 32 Nordeste 0.8 -- -- 98
2019-04-20 22:00:00 10.3 19 Nordeste 38 Norte 1 -- -- 98
2019-04-20 21:00:00 10.4 14 Nordeste 37 Nordeste 0.2 -- -- 98
2019-04-20 20:00:00 10.4 17 Nordeste 35 Nordeste 0.8 -- -- 97
2019-04-20 19:00:00 10.5 17 Nordeste 36 Nordeste 1.6 -- -- 96
2019-04-20 18:00:00 10.6 19 Nordeste 38 Nordeste 1.6 -- -- 95
2019-04-20 17:00:00 10.7 20 Nordeste 39 Nordeste 1.8 -- -- 95
2019-04-20 16:00:00 10.4 12 Nordeste 36 Norte 2.4 -- -- 97
2019-04-20 15:00:00 10.4 19 Nordeste 39 Nordeste 2.6 -- -- 97
2019-04-20 14:00:00 10.2 21 Nordeste 41 Nordeste 4.4 -- -- 97
2019-04-20 13:00:00 10.5 19 Nordeste 42 Norte 0.8 -- -- 96
2019-04-20 12:00:00 10.7 22 Nordeste 42 Nordeste 1 -- -- 96
2019-04-20 11:00:00 10.7 21 Nordeste 41 Nordeste 1.8 -- -- 96
2019-04-20 10:00:00 10.6 17 Nordeste 39 Nordeste 1.4 -- -- 97
2019-04-20 09:00:00 10.6 19 Nordeste 41 Nordeste 2 -- -- 98
2019-04-20 08:00:00 10.8 18 Nordeste 35 Nordeste 3.6 -- -- 98
2019-04-20 07:00:00 10.8 18 Nordeste 44 Nordeste 2.4 -- -- 98
2019-04-20 06:00:00 11.1 23 Nordeste 48 Norte 2.2 -- -- 98
2019-04-20 05:00:00 11 17 Nordeste 43 Nordeste 4.8 -- -- 99
2019-04-20 04:00:00 11.1 21 Nordeste 46 Nordeste 2 -- -- 99
2019-04-20 03:00:00 11.3 18 Nordeste 46 Nordeste 3.6 -- -- 99
2019-04-20 02:00:00 11.5 24 Nordeste 48 Nordeste 2.8 -- -- 98
2019-04-20 01:00:00 11.9 22 Nordeste 47 Nordeste 3.8 -- -- 98
2019-04-20 00:00:00 11.9 15 Nordeste 37 Nordeste 3.4 -- -- 98
2019-04-19 23:00:00 12 18 Nordeste 40 Nordeste 2.4 -- -- 98
2019-04-19 22:00:00 12 19 Nordeste 41 Nordeste 1.6 -- -- 97
2019-04-19 21:00:00 12.2 19 Nordeste 37 Nordeste 0.4 -- -- 97
2019-04-19 20:00:00 12.2 13 Nordeste 30 Norte 1 -- -- 97
2019-04-19 19:00:00 12.3 14 Norte 28 Norte 0.6 -- -- 97
2019-04-19 18:00:00 12.3 12 Nordeste 27 Nordeste 0.4 -- -- 97
2019-04-19 17:00:00 12.1 9 Nordeste 18 Nordeste 1 -- -- 98
2019-04-19 16:00:00 10.6 3 Sudeste 8 Sudeste 1.8 -- -- 97
2019-04-19 15:00:00 10.3 3 Oeste 6 Oeste 3.6 -- -- 97
2019-04-19 14:00:00 10.3 3 Este 15 Nordeste 1.2 -- -- 96
2019-04-19 13:00:00 11.1 5 Nordeste 10 Nordeste 0 -- -- 91
2019-04-19 12:00:00 11.3 0 Calma 7 Sur 0 -- -- 87
2019-04-19 11:00:00 10.8 0 Calma 5 Este 0 -- -- 94
2019-04-19 10:00:00 10.4 2 Este 4 Nordeste 0 -- -- 92
2019-04-19 09:00:00 10.1 3 Este 13 Sur 0 -- -- 92
2019-04-19 08:00:00 10.1 8 Sudoeste 17 Sudoeste 0 -- -- 92
2019-04-19 07:00:00 9.8 6 Sudoeste 10 Sudoeste 0.2 -- -- 95
2019-04-19 06:00:00 9.6 2 Este 5 Nordeste 0.4 -- -- 95
2019-04-19 05:00:00 9.8 4 Nordeste 13 Sudoeste 1 -- -- 93
2019-04-19 04:00:00 11.1 9 Sudoeste 22 Sudoeste 0.4 -- -- 79
2019-04-19 03:00:00 10.9 3 Sudoeste 17 Oeste 0 -- -- 84
2019-04-19 02:00:00 10.6 4 Sur 17 Oeste 0.2 -- -- 85
2019-04-19 01:00:00 11.3 5 Sudoeste 15 Oeste 0.4 -- -- 83
2019-04-19 00:00:00 10.9 4 Este 10 Oeste 0.8 -- -- 93
2019-04-18 23:00:00 11.2 4 Sudoeste 14 Oeste 0.4 -- -- 91
2019-04-18 22:00:00 10.8 6 Sudoeste 12 Sudoeste 2.4 -- -- 92
2019-04-18 21:00:00 11.1 3 Nordeste 13 Sudoeste 0.2 -- -- 88
2019-04-18 20:00:00 11.7 7 Sudoeste 18 Sur 0 -- -- 81
2019-04-18 19:00:00 11.4 8 Sudoeste 22 Sudoeste 0 -- -- 83
2019-04-18 18:00:00 11.9 9 Sudoeste 22 Oeste 0.2 -- -- 90
2019-04-18 17:00:00 12.7 6 Este 14 Este 0 -- -- 96
2019-04-18 16:00:00 12.8 6 Nordeste 15 Este 0 -- -- 94
2019-04-18 15:00:00 12.6 8 Nordeste 15 Este 0 -- -- 96
2019-04-18 14:00:00 11.9 6 Este 18 Nordeste 0.2 -- -- 96
2019-04-18 13:00:00 11.4 9 Nordeste 22 Nordeste 0.2 -- -- 96
2019-04-18 12:00:00 11.1 10 Nordeste 21 Nordeste 0 -- -- 94
2019-04-18 11:00:00 11.5 9 Nordeste 24 Nordeste 0 -- -- 90
2019-04-18 10:00:00 11.5 10 Nordeste 28 Nordeste 0 -- -- 88
2019-04-18 09:00:00 11.1 13 Nordeste 30 Norte 0 -- -- 90
2019-04-18 08:00:00 10.8 9 Nordeste 24 Norte 0 -- -- 88
2019-04-18 07:00:00 10.7 13 Nordeste 24 Este 0 -- -- 90
2019-04-18 06:00:00 10.8 9 Nordeste 22 Nordeste 0 -- -- 89
2019-04-18 05:00:00 11.1 9 Este 21 Nordeste 0 -- -- 88
2019-04-18 04:00:00 11.7 7 Norte 17 Nordeste 0 -- -- 81
2019-04-18 03:00:00 11.9 5 Nordeste 27 Nordeste 0 -- -- 83
2019-04-18 02:00:00 11.8 13 Nordeste 22 Nordeste 0 -- -- 86
2019-04-18 01:00:00 12.2 5 Norte 21 Nordeste 0 -- -- 81
2019-04-18 00:00:00 12 10 Nordeste 23 Nordeste 0 -- -- 82
2019-04-17 23:00:00 12 10 Nordeste 23 Nordeste 0 -- -- 84
2019-04-17 22:00:00 12 9 Nordeste 22 Norte 0 -- -- 84
2019-04-17 21:00:00 12.3 10 Nordeste 19 Norte 0 -- -- 84
2019-04-17 20:00:00 12.9 9 Nordeste 23 Nordeste 0 -- -- 84
2019-04-17 19:00:00 14 11 Nordeste 28 Nordeste 0 -- -- 77
2019-04-17 18:00:00 15.6 13 Nordeste 27 Este 0 -- -- 70
2019-04-17 17:00:00 16.5 15 Nordeste 30 Este 0 -- -- 67
2019-04-17 16:00:00 17.8 16 Nordeste 31 Nordeste 0 -- -- 64
2019-04-17 15:00:00 18.8 14 Nordeste 24 Nordeste 0 -- -- 59
2019-04-17 14:00:00 18.4 12 Nordeste 22 Nordeste 0 -- -- 57
2019-04-17 13:00:00 17.2 10 Este 18 Nordeste 0 -- -- 59
2019-04-17 12:00:00 15.8 7 Norte 18 Este 0 -- -- 65
2019-04-17 11:00:00 14 8 Nordeste 16 Este 0 -- -- 73
2019-04-17 10:00:00 13.1 5 Nordeste 11 Este 0 -- -- 73
2019-04-17 09:00:00 11.5 5 Este 12 Nordeste 0 -- -- 88
2019-04-17 08:00:00 11.1 5 Nordeste 11 Nordeste 0 -- -- 91
2019-04-17 07:00:00 11.1 4 Nordeste 8 Nordeste 0 -- -- 90
2019-04-17 06:00:00 11 3 Este 6 Este 0 -- -- 88
2019-04-17 05:00:00 11.2 0 Calma 5 Este 0 -- -- 82
2019-04-17 04:00:00 10.9 3 Este 5 Este 0 -- -- 85
2019-04-17 03:00:00 11 0 Calma 12 Este 0 -- -- 85
2019-04-17 02:00:00 10.7 4 Este 9 Este 0 -- -- 88
2019-04-17 01:00:00 10.8 5 Este 9 Este 0 -- -- 89
2019-04-17 00:00:00 10.3 3 Este 10 Este 0 -- -- 91
2019-04-16 23:00:00 10.7 4 Este 13 Este 0 -- -- 90
2019-04-16 22:00:00 12.2 3 Este 13 Este 0 -- -- 79
2019-04-16 21:00:00 13.6 8 Este 18 Norte 0 -- -- 74
2019-04-16 20:00:00 15.6 8 Nordeste 23 Norte 0 -- -- 64
2019-04-16 19:00:00 16.9 12 Norte 23 Nordeste 0 -- -- 60
2019-04-16 18:00:00 17.8 10 Norte 21 Nordeste 0 -- -- 59
2019-04-16 17:00:00 17.9 12 Nordeste 23 Este 0 -- -- 58
2019-04-16 16:00:00 18.9 8 Nordeste 24 Nordeste 0 -- -- 55
2019-04-16 15:00:00 18.7 14 Nordeste 30 Este 0 -- -- 55
2019-04-16 14:00:00 19 14 Nordeste 32 Nordeste 0 -- -- 53
2019-04-16 13:00:00 18.6 12 Nordeste 28 Nordeste 0 -- -- 51
2019-04-16 12:00:00 17.9 14 Nordeste 23 Este 0 -- -- 51
2019-04-16 11:00:00 17.2 14 Nordeste 22 Nordeste 0 -- -- 52
2019-04-16 10:00:00 17.4 5 Sudoeste 22 Oeste 0 -- -- 47
2019-04-16 09:00:00 15 8 Sur 20 Oeste 0 -- -- 56
2019-04-16 08:00:00 13.8 6 Oeste 19 Oeste 0 -- -- 60
2019-04-16 07:00:00 12.6 4 Sur 15 Oeste 0 -- -- 65
2019-04-16 06:00:00 14.4 10 Oeste 23 Oeste 0 -- -- 60
2019-04-16 05:00:00 12.5 0 Calma 16 Sudoeste 0 -- -- 75
2019-04-16 04:00:00 11 3 Oeste 8 Norte 0 -- -- 94
2019-04-16 03:00:00 11.1 2 Sudeste 5 Sudoeste 0 -- -- 92
2019-04-16 02:00:00 12 3 Sur 5 Sur 0 -- -- 92
2019-04-16 01:00:00 12.1 3 Este 8 Nordeste 0 -- -- 92
2019-04-16 00:00:00 13.1 3 Sudoeste 7 Sudoeste 0 -- -- 89
2019-04-15 23:00:00 12.9 3 Sudeste 5 Sudeste 0 -- -- 91
2019-04-15 22:00:00 13.1 5 Este 10 Este 0 -- -- 89
2019-04-15 21:00:00 14.1 4 Este 15 Este 0 -- -- 83
2019-04-15 20:00:00 15.3 11 Este 21 Este 0 -- -- 78
2019-04-15 19:00:00 17.1 10 Nordeste 21 Este 0 -- -- 69
2019-04-15 18:00:00 18.3 13 Nordeste 24 Este 0 -- -- 63
2019-04-15 17:00:00 18.6 13 Este 22 Nordeste 0 -- -- 63
2019-04-15 16:00:00 18.6 12 Nordeste 23 Este 0 -- -- 61
2019-04-15 15:00:00 18.4 12 Nordeste 23 Este 0 -- -- 62
2019-04-15 14:00:00 18.2 15 Nordeste 26 Este 0 -- -- 63
2019-04-15 13:00:00 17.6 14 Nordeste 23 Este 0 -- -- 62
2019-04-15 12:00:00 16.5 11 Este 23 Este 0 -- -- 69
2019-04-15 11:00:00 15 9 Este 16 Este 0 -- -- 73
2019-04-15 10:00:00 13.6 8 Este 14 Nordeste 0 -- -- 80
2019-04-15 09:00:00 12.1 6 Este 9 Nordeste 0 -- -- 84
2019-04-15 08:00:00 11.9 4 Este 8 Este 0 -- -- 78
2019-04-15 07:00:00 12.2 2 Sudeste 9 Nordeste 0 -- -- 72
2019-04-15 06:00:00 13.9 5 Oeste 13 Sudoeste 0 -- -- 66
2019-04-15 05:00:00 15.2 8 Sudoeste 18 Sudoeste 0 -- -- 61
2019-04-15 04:00:00 15.6 7 Sudoeste 21 Sudoeste 0 -- -- 59
2019-04-15 03:00:00 17.2 16 Sudoeste 21 Oeste 0 -- -- 53
2019-04-15 02:00:00 17.5 8 Sudoeste 13 Oeste 0 -- -- 52
2019-04-15 01:00:00 18.1 4 Sur 14 Sudoeste 0 -- -- 50
2019-04-15 00:00:00 18.1 6 Sur 13 Sudoeste 0 -- -- 46
2019-04-14 23:00:00 18.8 10 Sudoeste 19 Sudoeste 0 -- -- 42
2019-04-14 22:00:00 20 9 Sudoeste 15 Sudoeste 0 -- -- 40
2019-04-14 21:00:00 20.7 9 Sudoeste 23 Sur 0 -- -- 37
2019-04-14 20:00:00 23.8 8 Oeste 22 Oeste 0 -- -- 30
2019-04-14 19:00:00 25.2 8 Noroeste 27 Noroeste 0 -- -- 27
2019-04-14 18:00:00 25.7 13 Oeste 28 Noroeste 0 -- -- 27
2019-04-14 17:00:00 25.5 12 Oeste 28 Sudoeste 0 -- -- 27
2019-04-14 16:00:00 26.6 11 Noroeste 26 Sudoeste 0 -- -- 25
2019-04-14 15:00:00 25 9 Oeste 23 Oeste 0 -- -- 25
2019-04-14 14:00:00 24 10 Oeste 26 Noroeste 0 -- -- 27
2019-04-14 13:00:00 24.4 9 Noroeste 26 Sudeste 0 -- -- 25
2019-04-14 12:00:00 23.3 6 Oeste 32 Noroeste 0 -- -- 24
2019-04-14 11:00:00 21.1 11 Oeste 22 Oeste 0 -- -- 29
2019-04-14 10:00:00 19 5 Sur 13 Sudoeste 0 -- -- 35
2019-04-14 09:00:00 15.5 6 Sur 12 Sur 0 -- -- 43
2019-04-14 08:00:00 11.9 7 Sudoeste 17 Sur 0 -- -- 46
2019-04-14 07:00:00 11.4 11 Sur 17 Sur 0 -- -- 48
2019-04-14 06:00:00 12.1 9 Sur 18 Sur 0 -- -- 47
2019-04-14 05:00:00 12.3 5 Sur 14 Sudoeste 0 -- -- 45
2019-04-14 04:00:00 13.2 7 Oeste 16 Sudoeste 0 -- -- 38
2019-04-14 03:00:00 13.5 13 Sudoeste 20 Sudoeste 0 -- -- 34
2019-04-14 02:00:00 13 12 Sudoeste 19 Sudoeste 0 -- -- 36
2019-04-14 01:00:00 13.3 13 Sudoeste 18 Sudoeste 0 -- -- 40
2019-04-14 00:00:00 13.2 9 Sudoeste 13 Sudoeste 0 -- -- 48
2019-04-13 23:00:00 14 9 Sudoeste 17 Sudoeste 0 -- -- 49
2019-04-13 22:00:00 14.4 6 Sudoeste 14 Sudoeste 0 -- -- 51
2019-04-13 21:00:00 16.4 6 Sudoeste 16 Oeste 0 -- -- 44
2019-04-13 20:00:00 18.4 4 Oeste 15 Este 0 -- -- 38
2019-04-13 19:00:00 20.2 6 Este 21 Nordeste 0 -- -- 25
2019-04-13 18:00:00 20.8 11 Nordeste 24 Este 0 -- -- 21
2019-04-13 17:00:00 21.7 9 Norte 23 Este 0 -- -- 17
2019-04-13 16:00:00 22.2 9 Noroeste 24 Noroeste 0 -- -- 17
2019-04-13 15:00:00 21.9 9 Noroeste 35 Norte 0 -- -- 16
2019-04-13 14:00:00 21 11 Noroeste 31 Noroeste 0 -- -- 20
2019-04-13 13:00:00 19.8 11 Noroeste 29 Noroeste 0 -- -- 25
2019-04-13 12:00:00 18.2 8 Nordeste 16 Este 0 -- -- 33
2019-04-13 11:00:00 15.2 9 Este 14 Este 0 -- -- 47
2019-04-13 10:00:00 14.6 6 Este 10 Sudoeste 0 -- -- 46
2019-04-13 09:00:00 10.8 5 Sudoeste 16 Sudoeste 0 -- -- 53
2019-04-13 08:00:00 7.7 9 Sudoeste 18 Sudoeste 0 -- -- 62
2019-04-13 07:00:00 7.5 12 Sudoeste 18 Sudoeste 0 -- -- 61
2019-04-13 06:00:00 7.5 9 Sudoeste 15 Sudoeste 0 -- -- 62
2019-04-13 05:00:00 8.1 8 Sudoeste 16 Sudoeste 0 -- -- 60
2019-04-13 04:00:00 9.1 8 Sudoeste 12 Sudoeste 0 -- -- 56
2019-04-13 03:00:00 9 3 Sudoeste 12 Sudoeste 0 -- -- 58
2019-04-13 02:00:00 11.4 5 Sudoeste 13 Sudoeste 0 -- -- 50
2019-04-13 01:00:00 11.6 5 Sudoeste 10 Sur 0 -- -- 53
2019-04-13 00:00:00 11.5 6 Sudoeste 16 Sur 0 -- -- 57
2019-04-12 23:00:00 11 8 Sudoeste 17 Sudoeste 0 -- -- 65
2019-04-12 22:00:00 11.6 9 Sur 17 Oeste 0 -- -- 64
2019-04-12 21:00:00 12.5 8 Sudoeste 24 Sur 0 -- -- 63
2019-04-12 20:00:00 14.8 6 Sudoeste 22 Nordeste 0 -- -- 54
2019-04-12 19:00:00 17.4 10 Nordeste 17 Nordeste 0 -- -- 42
2019-04-12 18:00:00 17.9 7 Este 19 Este 0 -- -- 34
2019-04-12 17:00:00 18.4 7 Este 22 Este 0 -- -- 30
2019-04-12 16:00:00 17.8 10 Nordeste 24 Nordeste 0 -- -- 31
2019-04-12 15:00:00 17.6 10 Este 22 Nordeste 0 -- -- 34
2019-04-12 14:00:00 17.2 11 Nordeste 22 Este 0 -- -- 36
2019-04-12 13:00:00 15.8 8 Nordeste 18 Este 0 -- -- 33
2019-04-12 12:00:00 14.9 5 Este 16 Nordeste 0 -- -- 39
2019-04-12 11:00:00 14.2 6 Oeste 16 Oeste 0 -- -- 39
2019-04-12 10:00:00 12.3 8 Sudoeste 15 Sudoeste 0 -- -- 43
2019-04-12 09:00:00 10.3 5 Sur 17 Sur 0 -- -- 51
2019-04-12 08:00:00 7 6 Sur 19 Oeste 0 -- -- 62
2019-04-12 07:00:00 6.4 11 Sudoeste 18 Sudoeste 0 -- -- 64
2019-04-12 06:00:00 7.1 11 Sudoeste 16 Sudoeste 0 -- -- 63
2019-04-12 05:00:00 7.5 6 Sudoeste 15 Sudoeste 0 -- -- 64
2019-04-12 04:00:00 7.5 8 Sudoeste 12 Sudoeste 0 -- -- 68
2019-04-12 03:00:00 8.6 9 Sudoeste 14 Sudoeste 0 -- -- 65
2019-04-12 02:00:00 9.3 8 Sudoeste 12 Sudoeste 0 -- -- 63
2019-04-12 01:00:00 9.8 6 Sudoeste 12 Oeste 0 -- -- 60
2019-04-12 00:00:00 11 6 Sudoeste 9 Sudoeste 0 -- -- 56
2019-04-11 23:00:00 11 3 Sur 9 Sur 0 -- -- 57
2019-04-11 22:00:00 12.2 6 Sudoeste 23 Oeste 0 -- -- 56
2019-04-11 21:00:00 14.1 6 Oeste 22 Sudoeste 0 -- -- 44
2019-04-11 20:00:00 14.4 11 Oeste 26 Sudoeste 0 -- -- 46
2019-04-11 19:00:00 15.2 8 Sur 22 Sudoeste 0 -- -- 42
2019-04-11 18:00:00 17.2 6 Sur 16 Sudeste 0 -- -- 38
2019-04-11 17:00:00 17.2 10 Nordeste 19 Este 0 -- -- 37
2019-04-11 16:00:00 16.1 7 Sudoeste 17 Sudeste 0 -- -- 39
2019-04-11 15:00:00 17.1 5 Este 16 Este 0 -- -- 38
2019-04-11 14:00:00 16.7 8 Este 17 Nordeste 0 -- -- 39
2019-04-11 13:00:00 15.7 10 Este 19 Este 0 -- -- 43
2019-04-11 12:00:00 14.2 6 Nordeste 15 Nordeste 0 -- -- 46
2019-04-11 11:00:00 12.8 7 Este 14 Nordeste 0 -- -- 49
2019-04-11 10:00:00 11.5 6 Sur 17 Sudoeste 0 -- -- 53
2019-04-11 09:00:00 8.8 7 Sudoeste 14 Sur 0 -- -- 62
2019-04-11 08:00:00 5.8 5 Sudoeste 15 Sudoeste 0 -- -- 73
2019-04-11 07:00:00 5.6 8 Sudoeste 15 Sur 0 -- -- 74
2019-04-11 06:00:00 6.1 4 Sudoeste 12 Sudoeste 0 -- -- 72
2019-04-11 05:00:00 6.5 2 Noroeste 15 Sudoeste 0 -- -- 72
2019-04-11 04:00:00 7.8 6 Sudoeste 14 Sudoeste 0 -- -- 65
2019-04-11 03:00:00 7.2 2 Sudoeste 14 Sudoeste 0 -- -- 69
2019-04-11 02:00:00 9 6 Sudoeste 19 Sudeste 0 -- -- 61
2019-04-11 01:00:00 9.6 9 Sur 17 Sudoeste 0 -- -- 58
2019-04-11 00:00:00 10.1 5 Oeste 20 Sudoeste 0 -- -- 56
2019-04-10 23:00:00 10.5 8 Oeste 16 Oeste 0 -- -- 53
2019-04-10 22:00:00 11.6 7 Oeste 23 Oeste 0 -- -- 46
2019-04-10 21:00:00 12.3 10 Oeste 26 Oeste 0 -- -- 40
2019-04-10 20:00:00 13.4 3 Noroeste 17 Oeste 0 -- -- 41
2019-04-10 19:00:00 14.4 9 Oeste 29 Noroeste 0 -- -- 40
2019-04-10 18:00:00 14.8 12 Noroeste 31 Oeste 0 -- -- 36
2019-04-10 17:00:00 15.9 14 Noroeste 33 Norte 0 -- -- 36
2019-04-10 16:00:00 14.8 12 Oeste 30 Noroeste 0.2 -- -- 44
2019-04-10 15:00:00 15.9 13 Oeste 30 Oeste 0 -- -- 36
2019-04-10 14:00:00 14.1 9 Oeste 43 Sudoeste 0 -- -- 43
2019-04-10 13:00:00 14.7 16 Oeste 36 Oeste 0 -- -- 44
2019-04-10 12:00:00 13.6 13 Oeste 32 Oeste 0 -- -- 46
2019-04-10 11:00:00 12.6 10 Sudoeste 28 Oeste 0 -- -- 53
2019-04-10 10:00:00 10.3 6 Sur 26 Sur 0 -- -- 60
2019-04-10 09:00:00 10.1 11 Sudeste 41 Sudoeste 0 -- -- 60
2019-04-10 08:00:00 9.4 6 Sudoeste 45 Oeste 0 -- -- 66
2019-04-10 07:00:00 9.6 30 Oeste 55 Oeste 0 -- -- 64
2019-04-10 06:00:00 9.4 30 Oeste 51 Oeste 0 -- -- 66
2019-04-10 05:00:00 9.7 19 Oeste 42 Oeste 0 -- -- 65
2019-04-10 04:00:00 10.2 15 Oeste 46 Oeste 0 -- -- 64
2019-04-10 03:00:00 10.1 20 Oeste 54 Oeste 0 -- -- 65
2019-04-10 02:00:00 9.8 17 Oeste 42 Oeste 0 -- -- 66
2019-04-10 01:00:00 9.8 8 Oeste 24 Oeste 0 -- -- 62
2019-04-10 00:00:00 10.1 8 Oeste 30 Oeste 0 -- -- 60
2019-04-09 23:00:00 10.6 9 Oeste 30 Sudoeste 0 -- -- 59
2019-04-09 22:00:00 10.7 7 Oeste 33 Norte 0 -- -- 64
2019-04-09 21:00:00 11.5 12 Oeste 35 Oeste 0 -- -- 58
2019-04-09 20:00:00 11.9 3 Sudoeste 35 Oeste 0 -- -- 61
2019-04-09 19:00:00 12 13 Sudoeste 44 Sudoeste 0.8 -- -- 62
2019-04-09 18:00:00 13.9 11 Oeste 40 Sudoeste 0 -- -- 50
2019-04-09 17:00:00 13.9 15 Oeste 33 Oeste 0 -- -- 51
2019-04-09 16:00:00 15.7 14 Oeste 42 Oeste 0 -- -- 37
2019-04-09 15:00:00 15.1 15 Oeste 37 Oeste 0 -- -- 38
2019-04-09 14:00:00 14.1 18 Oeste 50 Sudoeste 0 -- -- 43
2019-04-09 13:00:00 14.4 19 Oeste 50 Oeste 0 -- -- 42
2019-04-09 12:00:00 12.3 14 Oeste 46 Oeste 0 -- -- 50
2019-04-09 11:00:00 11.5 13 Oeste 35 Oeste 0 -- -- 54
2019-04-09 10:00:00 10.6 16 Oeste 40 Oeste 0 -- -- 61
2019-04-09 09:00:00 9.9 8 Sur 32 Sur 0 -- -- 67
2019-04-09 08:00:00 10 11 Oeste 40 Oeste 0 -- -- 65
2019-04-09 07:00:00 10.2 15 Oeste 45 Sudoeste 0 -- -- 64
2019-04-09 06:00:00 10.4 17 Oeste 41 Sudoeste 0 -- -- 64
2019-04-09 05:00:00 10.7 5 Sudoeste 32 Oeste 0 -- -- 65
2019-04-09 04:00:00 11.9 10 Sudoeste 33 Oeste 0 -- -- 60
2019-04-09 03:00:00 11.9 16 Oeste 41 Oeste 0 -- -- 58
2019-04-09 02:00:00 12 5 Oeste 17 Sudoeste 0 -- -- 69
2019-04-09 01:00:00 11.6 6 Oeste 12 Oeste 0 -- -- 72
2019-04-09 00:00:00 11.9 5 Sudoeste 15 Sudoeste 0 -- -- 74
2019-04-08 23:00:00 12.6 10 Sudoeste 17 Sudoeste 0 -- -- 72
2019-04-08 22:00:00 12.9 6 Sudoeste 27 Sudoeste 0 -- -- 72
2019-04-08 21:00:00 13.9 14 Sudoeste 24 Sudoeste 0 -- -- 66
2019-04-08 20:00:00 14.1 10 Sudoeste 30 Sudoeste 0 -- -- 68
2019-04-08 19:00:00 15.5 12 Sudoeste 35 Oeste 0 -- -- 59
2019-04-08 18:00:00 16.4 17 Oeste 35 Oeste 0 -- -- 54
2019-04-08 17:00:00 18.4 10 Sudoeste 23 Sudoeste 0 -- -- 46
2019-04-08 16:00:00 16.7 8 Sudoeste 33 Oeste 0 -- -- 52
2019-04-08 15:00:00 17.8 13 Oeste 35 Sudoeste 0 -- -- 48
2019-04-08 14:00:00 16 13 Sudoeste 31 Sudoeste 0 -- -- 52
2019-04-08 13:00:00 15.4 13 Oeste 26 Sudoeste 0 -- -- 57
2019-04-08 12:00:00 14.2 10 Oeste 28 Sudoeste 0 -- -- 61
2019-04-08 11:00:00 13.4 9 Sudoeste 29 Sudoeste 0 -- -- 62
2019-04-08 10:00:00 12.5 8 Sudoeste 25 Sudoeste 0 -- -- 65
2019-04-08 09:00:00 12.4 8 Sudoeste 24 Sudoeste 0 -- -- 65
2019-04-08 08:00:00 12.2 10 Sudoeste 34 Oeste 0 -- -- 66
2019-04-08 07:00:00 12.2 13 Sudoeste 35 Sudoeste 0 -- -- 67
2019-04-08 06:00:00 12 12 Sudoeste 24 Oeste 0 -- -- 71
2019-04-08 05:00:00 11.9 9 Oeste 26 Sudoeste 0 -- -- 65
2019-04-08 04:00:00 11.9 13 Oeste 22 Sudoeste 0 -- -- 65
2019-04-08 03:00:00 11.3 12 Oeste 19 Oeste 0 -- -- 62
2019-04-08 02:00:00 11.6 7 Sudoeste 18 Oeste 0 -- -- 61
2019-04-08 01:00:00 11.8 6 Oeste 10 Sudoeste 0 -- -- 55
2019-04-08 00:00:00 12.3 4 Sudoeste 23 Oeste 0 -- -- 52
2019-04-07 23:00:00 12.7 6 Sudoeste 13 Sudoeste 0 -- -- 51
2019-04-07 22:00:00 13 4 Sudoeste 16 Sudoeste 0 -- -- 47
2019-04-07 21:00:00 13.3 6 Sudeste 21 Oeste 0 -- -- 44
2019-04-07 20:00:00 14.1 7 Este 18 Sudoeste 0 -- -- 40
2019-04-07 19:00:00 15.1 2 Norte 31 Noroeste 0 -- -- 35
2019-04-07 18:00:00 16.2 12 Noroeste 32 Noroeste 0 -- -- 32
2019-04-07 17:00:00 15.6 14 Oeste 36 Oeste 0 -- -- 32
2019-04-07 16:00:00 15.4 18 Noroeste 44 Oeste 0 -- -- 35
2019-04-07 15:00:00 14.8 21 Oeste 49 Oeste 0 -- -- 34
2019-04-07 14:00:00 13.8 21 Oeste 49 Oeste 0 -- -- 36
2019-04-07 13:00:00 13.7 14 Oeste 44 Oeste 0 -- -- 39
2019-04-07 12:00:00 12 17 Oeste 46 Oeste 0 -- -- 47
2019-04-07 11:00:00 10.4 22 Oeste 51 Sudoeste 0 -- -- 55
2019-04-07 10:00:00 8.5 9 Oeste 32 Noroeste 0 -- -- 67
2019-04-07 09:00:00 8.3 9 Oeste 20 Oeste 0 -- -- 64
2019-04-07 08:00:00 7 12 Oeste 36 Oeste 0 -- -- 68
2019-04-07 07:00:00 7 14 Oeste 49 Oeste 0 -- -- 67
2019-04-07 06:00:00 7.2 15 Oeste 50 Oeste 0 -- -- 66
2019-04-07 05:00:00 7.4 16 Oeste 50 Oeste 0 -- -- 65
2019-04-07 04:00:00 7.4 19 Oeste 52 Oeste 0 -- -- 64
2019-04-07 03:00:00 7.2 10 Oeste 31 Sudoeste 0 -- -- 65
2019-04-07 02:00:00 7.4 15 Sudoeste 28 Sudoeste 0 -- -- 65
2019-04-07 01:00:00 7.5 14 Oeste 35 Oeste 0 -- -- 63
2019-04-07 00:00:00 7.9 13 Oeste 27 Sudoeste 0 -- -- 63
2019-04-06 23:00:00 8.9 11 Oeste 29 Oeste 0 -- -- 60
2019-04-06 22:00:00 9.7 12 Sudoeste 22 Sudoeste 0 -- -- 59
2019-04-06 21:00:00 10.1 13 Sudoeste 29 Oeste 0 -- -- 54
2019-04-06 20:00:00 10.6 10 Sudoeste 35 Sur 0 -- -- 55
2019-04-06 19:00:00 11.2 16 Sudoeste 41 Sur 0 -- -- 51
2019-04-06 18:00:00 8.5 22 Sudoeste 51 Noroeste 0 -- -- 64
2019-04-06 17:00:00 12.8 12 Noroeste 39 Oeste 0 -- -- 48
2019-04-06 16:00:00 12.8 17 Sudoeste 36 Oeste 0.4 -- -- 44
2019-04-06 15:00:00 11.6 6 Oeste 30 Oeste 0 -- -- 60
2019-04-06 14:00:00 12 8 Sudoeste 36 Oeste 0 -- -- 48
2019-04-06 13:00:00 11 15 Sudoeste 33 Oeste 0 -- -- 54
2019-04-06 12:00:00 10.2 8 Oeste 35 Oeste 0 -- -- 56
2019-04-06 11:00:00 8.9 12 Sudoeste 33 Sudoeste 0 -- -- 57
2019-04-06 10:00:00 8.8 6 Sudoeste 34 Oeste 0 -- -- 60
2019-04-06 09:00:00 7.1 10 Sudoeste 27 Sudoeste 0 -- -- 64
2019-04-06 08:00:00 6.3 9 Sudoeste 35 Oeste 0 -- -- 67
2019-04-06 07:00:00 6.5 9 Sudoeste 23 Sudoeste 0 -- -- 69
2019-04-06 06:00:00 6.6 8 Sudoeste 25 Sudoeste 0 -- -- 67
2019-04-06 05:00:00 7.1 6 Sudoeste 19 Sudoeste 0 -- -- 68
2019-04-06 04:00:00 6.7 4 Sur 18 Oeste 0 -- -- 67
2019-04-06 03:00:00 7.4 11 Oeste 28 Sudoeste 0 -- -- 62
2019-04-06 02:00:00 7 9 Sudoeste 27 Sudoeste 0 -- -- 62
2019-04-06 01:00:00 7 12 Sudoeste 31 Sudoeste 0 -- -- 67
2019-04-06 00:00:00 7.4 12 Sudoeste 28 Oeste 0 -- -- 67
2019-04-05 23:00:00 6.9 6 Sudoeste 30 Noroeste 0.4 -- -- 78
2019-04-05 22:00:00 5.8 20 Oeste 40 Noroeste 0.8 -- -- 83
2019-04-05 21:00:00 8.8 3 Sur 13 Sudoeste 0 -- -- 77
2019-04-05 20:00:00 8.7 3 Sur 12 Oeste 0 -- -- 84
2019-04-05 19:00:00 7.9 5 Este 11 Nordeste 0.2 -- -- 89
2019-04-05 18:00:00 7.2 7 Sur 34 Oeste 5 -- -- 87
2019-04-05 17:00:00 7.8 18 Oeste 44 Sudoeste 4 -- -- 85
2019-04-05 16:00:00 13.6 15 Sur 32 Sudoeste 0 -- -- 60
2019-04-05 15:00:00 16 14 Sur 29 Sur 0 -- -- 48
2019-04-05 14:00:00 16.5 9 Sur 23 Sudoeste 0 -- -- 40
2019-04-05 13:00:00 15.9 14 Oeste 27 Oeste 0 -- -- 38
2019-04-05 12:00:00 14.9 6 Sudeste 24 Oeste 0 -- -- 42
2019-04-05 11:00:00 13.4 12 Sudoeste 25 Sudoeste 0 -- -- 42
2019-04-05 10:00:00 11.6 13 Sudoeste 20 Sudoeste 0 -- -- 51
2019-04-05 09:00:00 9.5 4 Sur 11 Oeste 0 -- -- 73
2019-04-05 08:00:00 8 3 Sudoeste 8 Sudoeste 0 -- -- 80
2019-04-05 07:00:00 8.7 5 Sudoeste 14 Sudoeste 0 -- -- 73
2019-04-05 06:00:00 9.1 5 Sudoeste 21 Oeste 0 -- -- 70
2019-04-05 05:00:00 9.4 9 Sudoeste 22 Sudoeste 0 -- -- 69
2019-04-05 04:00:00 9.1 2 Sudoeste 11 Sudoeste 0 -- -- 70
2019-04-05 03:00:00 9.2 3 Sur 28 Oeste 0 -- -- 70
2019-04-05 02:00:00 9.7 10 Sudoeste 21 Oeste 0 -- -- 68
2019-04-05 01:00:00 9.8 12 Oeste 24 Oeste 0 -- -- 69
2019-04-05 00:00:00 9.2 5 Sudoeste 28 Sudoeste 0 -- -- 68
2019-04-04 23:00:00 9.4 14 Sudoeste 33 Oeste 0 -- -- 68
2019-04-04 22:00:00 9.3 8 Sudoeste 23 Sudoeste 0 -- -- 70
2019-04-04 21:00:00 9.5 16 Sudoeste 37 Sur 0 -- -- 70
2019-04-04 20:00:00 9.9 16 Sudoeste 37 Sur 0 -- -- 69
2019-04-04 19:00:00 11.7 13 Sur 37 Sur 0 -- -- 62
2019-04-04 18:00:00 15.3 10 Sudoeste 32 Sur 0 -- -- 37
2019-04-04 17:00:00 14.1 15 Sur 32 Sur 0 -- -- 50
2019-04-04 16:00:00 16.9 10 Oeste 26 Sudoeste 0 -- -- 22
2019-04-04 15:00:00 15.8 8 Sudoeste 31 Oeste 0 -- -- 27
2019-04-04 14:00:00 14.9 12 Sudoeste 30 Sur 0 -- -- 31
2019-04-04 13:00:00 13.5 8 Este 18 Este 0 -- -- 38
2019-04-04 12:00:00 12.6 9 Nordeste 23 Este 0 -- -- 40
2019-04-04 11:00:00 12.1 11 Este 21 Nordeste 0 -- -- 40
2019-04-04 10:00:00 9.7 5 Este 9 Este 0 -- -- 67
2019-04-04 09:00:00 8.8 3 Sur 5 Sur 0 -- -- 74
2019-04-04 08:00:00 6.7 4 Sur 5 Sur 0 -- -- 82
2019-04-04 07:00:00 7.3 3 Sudeste 6 Sudeste 0 -- -- 80
2019-04-04 06:00:00 7.8 3 Nordeste 11 Nordeste 0 -- -- 77
2019-04-04 05:00:00 8.1 4 Nordeste 15 Nordeste 0 -- -- 76
2019-04-04 04:00:00 8.5 8 Nordeste 18 Nordeste 0 -- -- 83
2019-04-04 03:00:00 8.8 6 Nordeste 18 Nordeste 0 -- -- 85
2019-04-04 02:00:00 9.3 8 Nordeste 15 Nordeste 0 -- -- 87
2019-04-04 01:00:00 9.6 5 Nordeste 15 Norte 0 -- -- 89
2019-04-04 00:00:00 10.4 6 Norte 25 Nordeste 0 -- -- 89
2019-04-03 23:00:00 12.5 13 Nordeste 22 Nordeste 0 -- -- 75
2019-04-03 22:00:00 16.1 5 Sudoeste 13 Oeste 0 -- -- 52
2019-04-03 21:00:00 15.9 2 Oeste 14 Oeste 0 -- -- 61
2019-04-03 20:00:00 16.5 5 Sur 22 Sudoeste 0 -- -- 57
2019-04-03 19:00:00 17.2 6 Sudoeste 28 Sur 0 -- -- 54
2019-04-03 18:00:00 17 15 Sur 41 Sur 0 -- -- 54
2019-04-03 17:00:00 18 14 Sur 40 Sudoeste 0 -- -- 51
2019-04-03 16:00:00 20.1 17 Sudoeste 37 Sudoeste 0 -- -- 32
2019-04-03 15:00:00 19.7 13 Sudoeste 32 Sudoeste 0 -- -- 35
2019-04-03 14:00:00 19.4 16 Oeste 34 Sudoeste 0 -- -- 36
2019-04-03 13:00:00 18.9 15 Sudoeste 29 Sudoeste 0 -- -- 38
2019-04-03 12:00:00 18.3 10 Sudoeste 26 Oeste 0 -- -- 43
2019-04-03 11:00:00 17.2 9 Sudoeste 20 Sudoeste 0 -- -- 46
2019-04-03 10:00:00 15.6 10 Sudoeste 19 Sudoeste 0 -- -- 53
2019-04-03 09:00:00 13 5 Sudoeste 13 Sudoeste 0 -- -- 65
2019-04-03 08:00:00 11.2 6 Sudoeste 13 Sudoeste 0 -- -- 71
2019-04-03 07:00:00 10.2 9 Sudoeste 14 Sudoeste 0 -- -- 77
2019-04-03 06:00:00 10.3 8 Sudoeste 16 Sudoeste 0 -- -- 77
2019-04-03 05:00:00 10.8 10 Sudoeste 17 Sudoeste 0 -- -- 75
2019-04-03 04:00:00 10.8 8 Sudoeste 14 Sudoeste 0 -- -- 75
2019-04-03 03:00:00 10.7 9 Sudoeste 14 Sudoeste 0 -- -- 75
2019-04-03 02:00:00 11.2 10 Sudoeste 15 Sudoeste 0 -- -- 74
2019-04-03 01:00:00 11.3 4 Sudoeste 13 Sudoeste 0 -- -- 77
2019-04-03 00:00:00 11.3 6 Sudoeste 12 Sudoeste 0 -- -- 79
2019-04-02 23:00:00 10.7 6 Sudoeste 14 Sudoeste 0 -- -- 86
2019-04-02 22:00:00 11.2 9 Sudoeste 15 Sudoeste 0 -- -- 85
2019-04-02 21:00:00 11.4 4 Sur 7 Sur 0 -- -- 86
2019-04-02 20:00:00 12.4 0 Calma 18 Este 0 -- -- 81
2019-04-02 19:00:00 13.4 10 Este 27 Nordeste 0.4 -- -- 80
2019-04-02 18:00:00 13.4 14 Noroeste 36 Norte 0.8 -- -- 73
2019-04-02 17:00:00 17.7 8 Este 18 Nordeste 0 -- -- 58
2019-04-02 16:00:00 18.6 5 Sudoeste 19 Este 0 -- -- 45
2019-04-02 15:00:00 18.4 2 Norte 15 Oeste 0 -- -- 49
2019-04-02 14:00:00 17.6 3 Oeste 16 Noroeste 0 -- -- 52
2019-04-02 13:00:00 17.3 4 Oeste 20 Noroeste 0 -- -- 58
2019-04-02 12:00:00 17 6 Oeste 18 Oeste 0 -- -- 58
2019-04-02 11:00:00 15.7 11 Oeste 19 Oeste 0 -- -- 62
2019-04-02 10:00:00 13.7 6 Sur 15 Sur 0 -- -- 73
2019-04-02 09:00:00 11.4 5 Sur 14 Sudoeste 0 -- -- 82
2019-04-02 08:00:00 10.1 9 Sudoeste 15 Sudoeste 0 -- -- 88
2019-04-02 07:00:00 10.8 4 Sudoeste 18 Sudoeste 0 -- -- 85
2019-04-02 06:00:00 10.6 9 Sudoeste 16 Sudoeste 0 -- -- 87
2019-04-02 05:00:00 9.9 9 Sudoeste 14 Sudoeste 0 -- -- 90
2019-04-02 04:00:00 10.2 10 Sudoeste 15 Sudoeste 0 -- -- 88
2019-04-02 03:00:00 10.1 4 Sudoeste 11 Sudoeste 0 -- -- 88
2019-04-02 02:00:00 10.4 5 Sudoeste 16 Sudoeste 0 -- -- 89
2019-04-02 01:00:00 10.5 5 Sudoeste 14 Sur 0 -- -- 92
2019-04-02 00:00:00 10.1 4 Sur 12 Sur 0 -- -- 97
2019-04-01 23:00:00 10 0 Calma 4 Este 0 -- -- 97
2019-04-01 22:00:00 10.1 2 Este 4 Nordeste 0 -- -- 97
2019-04-01 21:00:00 10.2 0 Calma 4 Este 1 -- -- 96
2019-04-01 20:00:00 10.5 0 Calma 9 Nordeste 0.2 -- -- 92
2019-04-01 19:00:00 10.6 4 Nordeste 12 Nordeste 0 -- -- 92
2019-04-01 18:00:00 10.8 6 Nordeste 14 Nordeste 0 -- -- 92
2019-04-01 17:00:00 10.5 8 Nordeste 15 Nordeste 0 -- -- 94
2019-04-01 16:00:00 10.8 8 Este 12 Nordeste 0 -- -- 92
2019-04-01 15:00:00 10.6 4 Este 8 Este 0.2 -- -- 93
2019-04-01 14:00:00 10.8 4 Este 9 Nordeste 0 -- -- 91
2019-04-01 13:00:00 10.6 4 Este 6 Nordeste 0 -- -- 88
2019-04-01 12:00:00 10.7 4 Nordeste 9 Nordeste 0 -- -- 91
2019-04-01 11:00:00 9.4 6 Nordeste 13 Nordeste 0 -- -- 99
2019-04-01 10:00:00 9.2 4 Este 9 Este 0.2 -- -- 99
2019-04-01 09:00:00 9.2 5 Este 8 Este 0 -- -- 99
2019-04-01 08:00:00 9.2 0 Calma 3 Este 0 -- -- 99
2019-04-01 07:00:00 9.1 0 Calma 5 Este 0 -- -- 99
2019-04-01 06:00:00 9.1 3 Este 6 Este 0.8 -- -- 98
2019-04-01 05:00:00 9.4 4 Este 6 Este 0.4 -- -- 98
2019-04-01 04:00:00 9.7 3 Este 5 Este 0 -- -- 97
2019-04-01 03:00:00 10.1 0 Calma 9 Norte 0.2 -- -- 97
2019-04-01 02:00:00 10.1 4 Nordeste 11 Nordeste 0 -- -- 97
2019-04-01 01:00:00 10.3 4 Nordeste 18 Nordeste 0.6 -- -- 98
2019-04-01 00:00:00 10.2 9 Nordeste 22 Nordeste 2.2 -- -- 98
2019-03-31 23:00:00 10.3 6 Nordeste 14 Nordeste 4.8 -- -- 98
2019-03-31 22:00:00 9.8 2 Este 6 Este 1.2 -- -- 98
2019-03-31 21:00:00 9.7 4 Este 10 Este 0.8 -- -- 98
2019-03-31 20:00:00 9.8 4 Este 17 Este 0.6 -- -- 97
2019-03-31 19:00:00 9.8 7 Nordeste 27 Nordeste 0.8 -- -- 97
2019-03-31 18:00:00 10 9 Nordeste 18 Norte 1.4 -- -- 97
2019-03-31 17:00:00 9.8 8 Nordeste 18 Nordeste 1.6 -- -- 95
2019-03-31 16:00:00 9.9 9 Nordeste 21 Norte 0.6 -- -- 94
2019-03-31 15:00:00 10.3 12 Nordeste 23 Nordeste 2 -- -- 96
2019-03-31 14:00:00 9.8 11 Nordeste 22 Nordeste 3.2 -- -- 97
2019-03-31 13:00:00 9.8 10 Nordeste 18 Nordeste 3 -- -- 97
2019-03-31 12:00:00 9.2 6 Nordeste 13 Nordeste 3.4 -- -- 98
2019-03-31 11:00:00 8.3 2 Nordeste 4 Sudeste 3.8 -- -- 98
2019-03-31 10:00:00 7.8 2 Este 10 Este 1.6 -- -- 98
2019-03-31 09:00:00 7.4 5 Nordeste 10 Nordeste 2.6 -- -- 97
2019-03-31 08:00:00 7.2 4 Nordeste 9 Nordeste 2.8 -- -- 97
2019-03-31 07:00:00 7 5 Nordeste 10 Norte 2.2 -- -- 95
2019-03-31 06:00:00 6.1 3 Nordeste 8 Nordeste 1 -- -- 93
2019-03-31 05:00:00 7.2 3 Nordeste 5 Nordeste 0 -- -- 88
2019-03-31 03:00:00 7.5 0 Calma 4 Sur 0 -- -- 86
2019-03-31 01:00:00 6.8 0 Calma 5 Este 0 -- -- 90
2019-03-31 00:00:00 7.8 0 Calma 4 Norte 0 -- -- 87
2019-03-30 23:00:00 7.8 3 Este 9 Este 0 -- -- 87
2019-03-30 22:00:00 8.6 2 Este 7 Nordeste 0 -- -- 84
2019-03-30 21:00:00 9.1 4 Este 14 Nordeste 0 -- -- 79
2019-03-30 20:00:00 9.9 9 Nordeste 16 Nordeste 0 -- -- 74
2019-03-30 19:00:00 10.4 7 Nordeste 18 Este 0 -- -- 74
2019-03-30 18:00:00 10.8 10 Nordeste 23 Nordeste 0 -- -- 76
2019-03-30 17:00:00 11.8 14 Nordeste 26 Nordeste 0 -- -- 72
2019-03-30 16:00:00 13.8 15 Nordeste 28 Norte 0 -- -- 63
2019-03-30 15:00:00 14.7 12 Nordeste 26 Este 0 -- -- 57
2019-03-30 14:00:00 14.7 13 Nordeste 25 Nordeste 0 -- -- 54
2019-03-30 13:00:00 13.6 9 Nordeste 21 Nordeste 0 -- -- 55
2019-03-30 12:00:00 13.7 8 Norte 21 Nordeste 0 -- -- 53
2019-03-30 11:00:00 11.2 10 Nordeste 21 Nordeste 0 -- -- 64
2019-03-30 10:00:00 9.8 7 Nordeste 13 Nordeste 0 -- -- 75
2019-03-30 09:00:00 8.1 3 Este 5 Este 0 -- -- 78
2019-03-30 08:00:00 6 0 Calma 4 Este 0 -- -- 83
2019-03-30 07:00:00 5.9 3 Sudoeste 8 Sur 0 -- -- 81
2019-03-30 06:00:00 5.4 0 Calma 4 Este 0 -- -- 86
2019-03-30 05:00:00 6 0 Calma 10 Sudoeste 0 -- -- 79
2019-03-30 04:00:00 5.5 5 Oeste 10 Sudoeste 0 -- -- 81
2019-03-30 03:00:00 5.2 5 Sudoeste 10 Sudoeste 0 -- -- 83
2019-03-30 02:00:00 5.5 4 Sudoeste 12 Sudoeste 0 -- -- 82
2019-03-30 01:00:00 6 8 Sudoeste 11 Sudoeste 0 -- -- 82
2019-03-30 00:00:00 6.5 7 Sudoeste 11 Sudoeste 0 -- -- 84
2019-03-29 23:00:00 6.5 0 Calma 2 Noroeste 0 -- -- 90
2019-03-29 22:00:00 7.4 0 Calma 5 Este 0 -- -- 86
2019-03-29 21:00:00 8.7 4 Este 15 Nordeste 0 -- -- 80
2019-03-29 20:00:00 10 6 Nordeste 15 Norte 0 -- -- 72
2019-03-29 19:00:00 11.4 6 Nordeste 21 Norte 0 -- -- 62
2019-03-29 18:00:00 12.8 10 Nordeste 25 Nordeste 0 -- -- 54
2019-03-29 17:00:00 14 10 Nordeste 24 Nordeste 0 -- -- 45
2019-03-29 16:00:00 14.9 9 Este 21 Nordeste 0 -- -- 45
2019-03-29 15:00:00 14.7 14 Este 30 Este 0 -- -- 37
2019-03-29 14:00:00 15.5 10 Este 28 Sudeste 0 -- -- 36
2019-03-29 13:00:00 15.3 6 Nordeste 21 Este 0 -- -- 42
2019-03-29 12:00:00 13.7 5 Nordeste 19 Este 0 -- -- 46
2019-03-29 11:00:00 13.2 7 Nordeste 19 Nordeste 0 -- -- 48
2019-03-29 10:00:00 11.7 0 Calma 8 Este 0 -- -- 52
2019-03-29 09:00:00 8.8 2 Este 11 Sudoeste 0 -- -- 54
2019-03-29 08:00:00 4.6 6 Sudoeste 14 Sudoeste 0 -- -- 54
2019-03-29 07:00:00 2.4 11 Sudoeste 17 Sudoeste 0 -- -- 60
2019-03-29 06:00:00 2.6 10 Sudoeste 16 Sudoeste 0 -- -- 58
2019-03-29 05:00:00 3.2 9 Sudoeste 15 Sudoeste 0 -- -- 56
2019-03-29 04:00:00 3.6 9 Sudoeste 17 Sudoeste 0 -- -- 55
2019-03-29 03:00:00 4.5 9 Sudoeste 13 Sudoeste 0 -- -- 54
2019-03-29 02:00:00 4.5 9 Sudoeste 16 Sudoeste 0 -- -- 59
2019-03-29 01:00:00 5.6 9 Sudoeste 17 Sudoeste 0 -- -- 59
2019-03-29 00:00:00 6.2 9 Sudoeste 14 Sudoeste 0 -- -- 64
2019-03-28 23:00:00 7.3 10 Sudoeste 18 Sudoeste 0 -- -- 62
2019-03-28 22:00:00 8.5 4 Sudoeste 12 Sudoeste 0 -- -- 61
2019-03-28 21:00:00 9.7 4 Sudoeste 12 Sur 0 -- -- 57
2019-03-28 20:00:00 11 4 Sudoeste 13 Sudoeste 0 -- -- 51
2019-03-28 19:00:00 12.7 7 Oeste 17 Norte 0 -- -- 40
2019-03-28 18:00:00 14.5 10 Nordeste 25 Nordeste 0 -- -- 29
2019-03-28 17:00:00 15.5 12 Nordeste 24 Nordeste 0 -- -- 25
2019-03-28 16:00:00 16 13 Nordeste 25 Nordeste 0 -- -- 26
2019-03-28 15:00:00 16.2 14 Nordeste 23 Nordeste 0 -- -- 29
2019-03-28 14:00:00 16.2 12 Nordeste 25 Nordeste 0 -- -- 25
2019-03-28 13:00:00 16.4 10 Norte 24 Nordeste 0 -- -- 22
2019-03-28 12:00:00 14.7 11 Nordeste 18 Norte 0 -- -- 28
2019-03-28 11:00:00 13.6 8 Nordeste 18 Nordeste 0 -- -- 27
2019-03-28 10:00:00 13.4 3 Nordeste 8 Este 0 -- -- 31
2019-03-28 09:00:00 9.8 0 Calma 17 Sudoeste 0 -- -- 34
2019-03-28 08:00:00 4.1 12 Sudoeste 18 Sudoeste 0 -- -- 42
2019-03-28 07:00:00 2.4 10 Sudoeste 15 Sudoeste 0 -- -- 45
2019-03-28 06:00:00 2.9 6 Sudoeste 16 Sudoeste 0 -- -- 43
2019-03-28 05:00:00 3 10 Sudoeste 17 Sudoeste 0 -- -- 43
2019-03-28 04:00:00 3.2 8 Sudoeste 15 Sudoeste 0 -- -- 43
2019-03-28 03:00:00 3.1 11 Sudoeste 17 Sudoeste 0 -- -- 44
2019-03-28 02:00:00 3.6 10 Sudoeste 17 Sudoeste 0 -- -- 43
2019-03-28 01:00:00 4 8 Sudoeste 18 Sudoeste 0 -- -- 46
2019-03-28 00:00:00 4.4 9 Sudoeste 17 Sudoeste 0 -- -- 46
2019-03-27 23:00:00 5.5 10 Sudoeste 16 Sudoeste 0 -- -- 44
2019-03-27 22:00:00 6.9 9 Sudoeste 15 Sudoeste 0 -- -- 44
2019-03-27 21:00:00 8.3 8 Sudoeste 10 Sudoeste 0 -- -- 41
2019-03-27 20:00:00 9.1 0 Calma 5 Noroeste 0 -- -- 40
2019-03-27 19:00:00 11.4 4 Nordeste 15 Norte 0 -- -- 36
2019-03-27 18:00:00 13 6 Nordeste 19 Nordeste 0 -- -- 31
2019-03-27 17:00:00 14 10 Nordeste 23 Nordeste 0 -- -- 30
2019-03-27 16:00:00 14.3 11 Nordeste 26 Nordeste 0 -- -- 31
2019-03-27 15:00:00 14.5 12 Nordeste 36 Nordeste 0 -- -- 33
2019-03-27 14:00:00 14.5 14 Nordeste 29 Este 0 -- -- 35
2019-03-27 13:00:00 14.3 14 Nordeste 28 Nordeste 0 -- -- 32
2019-03-27 12:00:00 13.6 10 Nordeste 23 Nordeste 0 -- -- 40
2019-03-27 11:00:00 12 10 Nordeste 23 Nordeste 0 -- -- 47
2019-03-27 10:00:00 10.9 6 Este 15 Nordeste 0 -- -- 55
2019-03-27 09:00:00 9.5 3 Sudoeste 14 Sudoeste 0 -- -- 61
2019-03-27 08:00:00 4.4 6 Sudoeste 15 Sudoeste 0 -- -- 68
2019-03-27 07:00:00 2.5 6 Sudoeste 16 Sudoeste 0 -- -- 72
2019-03-27 06:00:00 2.7 12 Sudoeste 17 Sudoeste 0 -- -- 70
2019-03-27 05:00:00 3.2 10 Sudoeste 15 Sudoeste 0 -- -- 69
2019-03-27 04:00:00 3.8 11 Sudoeste 17 Sudoeste 0 -- -- 68
2019-03-27 03:00:00 4.3 9 Sudoeste 13 Sudoeste 0 -- -- 70
2019-03-27 02:00:00 5.7 6 Oeste 13 Sudoeste 0 -- -- 70
2019-03-27 01:00:00 5.4 2 Sudoeste 6 Oeste 0 -- -- 75
2019-03-27 00:00:00 6.3 4 Sudoeste 9 Sudoeste 0 -- -- 76
2019-03-26 23:00:00 6 2 Sur 8 Sur 0 -- -- 79
2019-03-26 22:00:00 7 2 Este 19 Nordeste 0 -- -- 77
2019-03-26 21:00:00 8.3 5 Nordeste 15 Nordeste 0 -- -- 73
2019-03-26 20:00:00 9.6 5 Nordeste 12 Nordeste 0 -- -- 65
2019-03-26 19:00:00 11 6 Norte 21 Nordeste 0 -- -- 59
2019-03-26 18:00:00 12.9 13 Nordeste 28 Nordeste 0 -- -- 49
2019-03-26 17:00:00 14.7 13 Nordeste 28 Nordeste 0 -- -- 47
2019-03-26 16:00:00 15.3 12 Norte 32 Este 0 -- -- 48
2019-03-26 15:00:00 15 12 Nordeste 29 Nordeste 0 -- -- 50
2019-03-26 14:00:00 15 12 Nordeste 30 Nordeste 0 -- -- 49
2019-03-26 13:00:00 13.9 11 Nordeste 27 Este 0 -- -- 54
2019-03-26 12:00:00 12.9 14 Nordeste 24 Nordeste 0 -- -- 58
2019-03-26 11:00:00 11.7 12 Nordeste 23 Nordeste 0 -- -- 60
2019-03-26 10:00:00 9.9 10 Nordeste 21 Nordeste 0 -- -- 77
2019-03-26 09:00:00 8.9 9 Nordeste 20 Nordeste 0 -- -- 81
2019-03-26 08:00:00 6.1 0 Calma 8 Sudoeste 0 -- -- 58
2019-03-26 07:00:00 5.2 3 Oeste 9 Oeste 0 -- -- 57
2019-03-26 06:00:00 5.9 7 Oeste 11 Oeste 0 -- -- 52
2019-03-26 05:00:00 6.3 8 Sudoeste 14 Sudoeste 0 -- -- 50
2019-03-26 04:00:00 6.4 11 Sudoeste 15 Sudoeste 0 -- -- 47
2019-03-26 03:00:00 7.2 8 Sudoeste 17 Sudoeste 0 -- -- 45
2019-03-26 02:00:00 7.5 11 Sudoeste 17 Sudoeste 0 -- -- 44
2019-03-26 01:00:00 8.4 9 Sudoeste 17 Oeste 0 -- -- 43
2019-03-26 00:00:00 8.7 11 Sudoeste 18 Sudoeste 0 -- -- 42
2019-03-25 23:00:00 9.7 9 Sudoeste 15 Sudoeste 0 -- -- 41
2019-03-25 22:00:00 11 8 Sudoeste 17 Sudoeste 0 -- -- 38
2019-03-25 21:00:00 13 8 Sudoeste 13 Oeste 0 -- -- 33
2019-03-25 20:00:00 14.4 3 Oeste 6 Oeste 0 -- -- 32
2019-03-25 19:00:00 17.2 4 Nordeste 16 Nordeste 0 -- -- 25
2019-03-25 18:00:00 19.2 8 Norte 19 Nordeste 0 -- -- 21
2019-03-25 17:00:00 19.6 11 Nordeste 22 Nordeste 0 -- -- 25
2019-03-25 16:00:00 20.2 10 Nordeste 24 Nordeste 0 -- -- 25
2019-03-25 15:00:00 20.4 12 Nordeste 23 Nordeste 0 -- -- 25
2019-03-25 14:00:00 19.9 10 Nordeste 24 Este 0 -- -- 25
2019-03-25 13:00:00 19.8 10 Nordeste 22 Este 0 -- -- 25
2019-03-25 12:00:00 18.7 14 Nordeste 24 Nordeste 0 -- -- 25
2019-03-25 11:00:00 17.2 7 Nordeste 13 Este 0 -- -- 28
2019-03-25 10:00:00 17.8 0 Calma 8 Sudoeste 0 -- -- 27
2019-03-25 09:00:00 11.5 6 Sudoeste 13 Sudoeste 0 -- -- 37
2019-03-25 08:00:00 7.4 7 Sudoeste 15 Sudoeste 0 -- -- 45
2019-03-25 07:00:00 6.1 8 Sudoeste 18 Sudoeste 0 -- -- 47
2019-03-25 06:00:00 6.1 12 Sudoeste 17 Sudoeste 0 -- -- 47
2019-03-25 05:00:00 6.4 9 Sudoeste 19 Sudoeste 0 -- -- 47
2019-03-25 04:00:00 7.2 9 Sudoeste 15 Sudoeste 0 -- -- 45
2019-03-25 03:00:00 7.2 10 Sudoeste 17 Sudoeste 0 -- -- 44
2019-03-25 02:00:00 8 10 Sudoeste 15 Sudoeste 0 -- -- 42
2019-03-25 01:00:00 7.9 11 Sudoeste 19 Sudoeste 0 -- -- 43
2019-03-25 00:00:00 8.8 12 Sudoeste 20 Oeste 0 -- -- 42